Time;durP1;ratioP1;P1;durP2;ratioP2;P2;SDS_P1;SDS_P2;PMS_P1;PMS_P2;Temp;Humidity;BMP_temperature;BMP_pressure;BME280_temperature;BME280_humidity;BME280_pressure;Samples;Min_cycle;Max_cycle;Signal;HPM_P1;HPM_P2
2023/09/03 00:00:28;;;;;;;18.10;16.20;;;16.20;99.90;;;;;;4862018;29;20184;-79
2023/09/03 00:02:54;;;;;;;18.77;16.77;;;16.20;99.90;;;;;;4862670;29;20645;-79
2023/09/03 00:05:20;;;;;;;20.50;15.33;;;16.20;99.90;;;;;;4862312;29;20188;-79
2023/09/03 00:07:45;;;;;;;16.37;14.17;;;16.10;99.90;;;;;;4862431;29;20191;-79
2023/09/03 00:10:11;;;;;;;15.20;13.60;;;16.10;99.90;;;;;;4862512;29;20199;-79
2023/09/03 00:12:37;;;;;;;18.80;15.10;;;16.00;99.90;;;;;;4861883;29;20310;-79
2023/09/03 00:15:03;;;;;;;16.17;13.70;;;16.00;99.90;;;;;;4862363;29;20244;-79
2023/09/03 00:17:29;;;;;;;19.63;16.07;;;16.00;99.90;;;;;;4862208;29;20180;-79
2023/09/03 00:19:54;;;;;;;18.60;14.50;;;15.90;99.90;;;;;;4862209;29;20403;-79
2023/09/03 00:22:20;;;;;;;22.83;15.90;;;15.90;99.90;;;;;;4861961;29;20191;-79
2023/09/03 00:24:46;;;;;;;19.53;16.33;;;15.90;99.90;;;;;;4862246;29;20192;-79
2023/09/03 00:27:11;;;;;;;19.73;15.60;;;15.90;99.90;;;;;;4861794;29;20649;-79
2023/09/03 00:29:37;;;;;;;19.23;15.00;;;15.80;99.90;;;;;;4862167;29;20188;-79
2023/09/03 00:32:03;;;;;;;19.90;15.57;;;15.80;99.90;;;;;;4862286;29;20212;-79
2023/09/03 00:34:28;;;;;;;25.60;16.77;;;15.70;99.90;;;;;;4861977;29;20196;-79
2023/09/03 00:36:54;;;;;;;27.40;18.00;;;15.70;99.90;;;;;;4861743;29;20512;-79
2023/09/03 00:39:20;;;;;;;23.50;15.80;;;15.60;99.90;;;;;;4860725;29;20192;-79
2023/09/03 00:41:45;;;;;;;19.07;16.10;;;15.60;99.90;;;;;;4862146;29;20220;-79
2023/09/03 00:44:14;;;;;;;21.00;15.70;;;15.50;99.90;;;;;;4862412;29;20224;-79
2023/09/03 00:46:44;;;;;;;17.90;14.97;;;15.40;99.90;;;;;;4861582;29;20910;-79
2023/09/03 00:49:21;;;;;;;22.23;15.57;;;15.40;99.90;;;;;;4862111;29;20438;-79
2023/09/03 00:51:46;;;;;;;23.77;18.33;;;15.40;99.90;;;;;;4861881;29;20475;-79
2023/09/03 00:54:12;;;;;;;22.63;16.10;;;15.50;99.90;;;;;;4862006;29;20917;-79
2023/09/03 00:56:39;;;;;;;23.30;16.47;;;15.40;99.90;;;;;;4862105;29;20283;-79
2023/09/03 00:59:06;;;;;;;18.67;14.33;;;15.40;99.90;;;;;;4862345;29;20425;-79
2023/09/03 01:01:32;;;;;;;18.90;15.47;;;15.30;99.90;;;;;;4862128;29;20449;-79
2023/09/03 01:03:58;;;;;;;19.70;15.37;;;15.20;99.90;;;;;;4861938;29;20425;-79
2023/09/03 01:06:25;;;;;;;24.07;16.80;;;15.20;99.90;;;;;;4861771;29;20473;-79
2023/09/03 01:08:51;;;;;;;19.50;15.87;;;15.10;99.90;;;;;;4861870;29;20196;-80
2023/09/03 01:11:42;;;;;;;25.23;17.67;;;15.10;99.90;;;;;;4861996;29;20476;-79
2023/09/03 01:14:55;;;;;;;24.67;16.27;;;15.10;99.90;;;;;;4865096;29;20783;-79
2023/09/03 01:17:23;;;;;;;20.70;16.60;;;15.10;99.90;;;;;;4790150;30;20468;-79
2023/09/03 01:20:24;;;;;;;23.90;17.60;;;15.00;99.90;;;;;;4790655;30;20977;-79
2023/09/03 01:23:27;;;;;;;21.50;16.87;;;15.00;99.90;;;;;;4841761;29;20469;-79
2023/09/03 01:26:32;;;;;;;27.57;18.07;;;15.00;99.90;;;;;;4865269;29;20384;-79
2023/09/03 01:28:59;;;;;;;20.17;15.80;;;14.90;99.90;;;;;;4865466;29;20476;-79
2023/09/03 01:31:25;;;;;;;19.83;14.80;;;14.90;99.90;;;;;;4865143;29;20465;-79
2023/09/03 01:33:58;;;;;;;22.83;14.53;;;14.80;99.90;;;;;;4865418;29;20490;-79
2023/09/03 01:36:23;;;;;;;20.40;14.67;;;14.80;99.90;;;;;;4865282;29;20447;-79
2023/09/03 01:38:49;;;;;;;23.37;17.20;;;14.80;99.90;;;;;;4865317;29;20395;-79
2023/09/03 01:41:15;;;;;;;26.33;17.03;;;14.80;99.90;;;;;;4865126;29;20281;-79
2023/09/03 01:43:41;;;;;;;22.03;15.33;;;14.70;99.90;;;;;;4865025;29;20548;-79
2023/09/03 01:46:08;;;;;;;19.47;13.60;;;14.70;99.90;;;;;;4865045;29;20267;-79
2023/09/03 01:48:55;;;;;;;22.47;16.47;;;14.60;99.90;;;;;;4864905;29;20429;-79
2023/09/03 01:51:28;;;;;;;32.67;18.33;;;14.60;99.90;;;;;;4864962;29;20468;-82
2023/09/03 01:54:16;;;;;;;30.10;18.90;;;14.50;99.90;;;;;;4865160;29;20508;-79
2023/09/03 01:57:02;;;;;;;28.17;18.47;;;14.50;99.90;;;;;;4864860;29;20431;-80
2023/09/03 01:59:44;;;;;;;29.90;20.30;;;14.50;99.90;;;;;;4864825;29;20437;-79
2023/09/03 02:02:11;;;;;;;33.07;20.97;;;14.40;99.90;;;;;;4864914;29;20453;-79
2023/09/03 02:04:37;;;;;;;31.50;19.77;;;14.40;99.90;;;;;;4864466;29;20500;-79
2023/09/03 02:07:04;;;;;;;31.13;18.53;;;14.50;99.90;;;;;;4864769;29;20467;-79
2023/09/03 02:09:30;;;;;;;31.60;20.00;;;14.40;99.90;;;;;;4864283;29;20189;-79
2023/09/03 02:11:55;;;;;;;30.33;19.90;;;14.40;99.90;;;;;;4864669;29;20487;-79
2023/09/03 02:14:21;;;;;;;26.87;17.60;;;14.40;99.90;;;;;;4864547;29;20192;-79
2023/09/03 02:16:46;;;;;;;31.23;17.70;;;14.40;99.90;;;;;;4864775;29;20192;-79
2023/09/03 02:19:12;;;;;;;30.73;19.07;;;14.30;99.90;;;;;;4867858;29;20528;-79
2023/09/03 02:21:38;;;;;;;25.77;17.20;;;14.30;99.90;;;;;;4865310;29;20224;-77
2023/09/03 02:24:03;;;;;;;27.90;18.40;;;14.30;99.90;;;;;;4864548;29;20203;-77
2023/09/03 02:26:29;;;;;;;30.90;20.37;;;14.20;99.90;;;;;;4865882;29;20195;-77
2023/09/03 02:28:55;;;;;;;30.03;19.73;;;14.20;99.90;;;;;;4864969;29;20235;-77
2023/09/03 02:31:20;;;;;;;31.40;20.43;;;14.20;99.90;;;;;;4864654;29;20216;-77
2023/09/03 02:33:46;;;;;;;30.60;19.43;;;14.20;99.90;;;;;;4864246;29;20668;-77
2023/09/03 02:36:11;;;;;;;27.93;20.53;;;14.20;99.90;;;;;;4864703;29;20664;-77
2023/09/03 02:38:39;;;;;;;36.90;22.60;;;14.20;99.90;;;;;;4863972;29;20271;-77
2023/09/03 02:41:04;;;;;;;33.10;20.87;;;14.20;99.90;;;;;;4865261;29;20215;-77
2023/09/03 02:43:30;;;;;;;34.63;22.50;;;14.20;99.90;;;;;;4864187;29;20910;-77
2023/09/03 02:45:56;;;;;;;37.27;24.90;;;14.20;99.90;;;;;;4864489;29;20669;-77
2023/09/03 02:48:21;;;;;;;47.83;25.67;;;14.20;99.90;;;;;;4864048;29;20188;-79
2023/09/03 02:50:47;;;;;;;44.57;24.80;;;14.30;99.90;;;;;;4862828;29;20264;-79
2023/09/03 02:53:13;;;;;;;46.20;26.17;;;14.30;99.90;;;;;;4864019;29;20303;-77
2023/09/03 02:55:38;;;;;;;53.00;26.47;;;14.30;99.90;;;;;;4863931;29;20508;-77
2023/09/03 02:58:04;;;;;;;50.57;27.33;;;14.30;99.90;;;;;;4863913;29;20192;-77
2023/09/03 03:00:29;;;;;;;42.37;24.60;;;14.30;99.90;;;;;;4864167;29;20227;-77
2023/09/03 03:02:55;;;;;;;44.87;22.23;;;14.20;99.90;;;;;;4864275;29;20188;-77
2023/09/03 03:05:21;;;;;;;38.83;23.40;;;14.20;99.90;;;;;;4864095;29;20696;-77
2023/09/03 03:07:46;;;;;;;44.10;24.30;;;14.20;99.90;;;;;;4863607;29;20188;-77
2023/09/03 03:10:12;;;;;;;44.83;25.97;;;14.20;99.90;;;;;;4864214;29;20626;-77
2023/09/03 03:12:38;;;;;;;47.10;26.90;;;14.20;99.90;;;;;;4863737;29;20240;-77
2023/09/03 03:15:04;;;;;;;44.50;24.67;;;14.10;99.90;;;;;;4863676;29;20189;-77
2023/09/03 03:17:30;;;;;;;42.93;24.57;;;14.10;99.90;;;;;;4864109;29;20192;-77
2023/09/03 03:19:56;;;;;;;38.97;23.13;;;14.10;99.90;;;;;;4864117;29;20422;-77
2023/09/03 03:22:21;;;;;;;40.50;26.97;;;14.10;99.90;;;;;;4863354;29;20752;-77
2023/09/03 03:24:47;;;;;;;45.63;26.30;;;14.10;99.90;;;;;;4863025;29;20199;-77
2023/09/03 03:27:13;;;;;;;43.83;24.57;;;14.10;99.90;;;;;;4863507;29;20223;-77
2023/09/03 03:29:39;;;;;;;54.07;30.30;;;14.10;99.90;;;;;;4863355;29;20530;-77
2023/09/03 03:32:07;;;;;;;56.27;29.40;;;14.10;99.90;;;;;;4863346;29;20476;-77
2023/09/03 03:34:32;;;;;;;57.53;30.50;;;14.10;99.90;;;;;;4863262;29;20248;-78
2023/09/03 03:36:58;;;;;;;56.67;33.10;;;14.10;99.90;;;;;;4862928;29;20433;-77
2023/09/03 03:39:23;;;;;;;65.53;35.07;;;14.10;99.90;;;;;;4863314;29;20180;-77
2023/09/03 03:41:49;;;;;;;60.80;32.07;;;14.10;99.90;;;;;;4862978;29;20227;-77
2023/09/03 03:44:15;;;;;;;59.63;29.60;;;14.10;99.90;;;;;;4863355;29;20287;-77
2023/09/03 03:46:40;;;;;;;55.27;27.73;;;14.10;99.90;;;;;;4862984;29;20184;-78
2023/09/03 03:49:06;;;;;;;51.40;27.70;;;14.00;99.90;;;;;;4863185;29;20199;-78
2023/09/03 03:51:31;;;;;;;51.93;26.30;;;14.00;99.90;;;;;;4862624;29;20211;-78
2023/09/03 03:54:03;;;;;;;42.07;23.93;;;14.00;99.90;;;;;;4862921;29;20192;-78
2023/09/03 03:56:29;;;;;;;40.90;24.37;;;14.00;99.90;;;;;;4862785;29;20203;-79
2023/09/03 03:58:54;;;;;;;60.10;30.10;;;13.90;99.90;;;;;;4862858;29;20438;-78
2023/09/03 04:01:24;;;;;;;50.83;27.63;;;13.90;99.90;;;;;;4863005;29;20566;-78
2023/09/03 04:03:51;;;;;;;59.30;30.63;;;13.90;99.90;;;;;;4862644;29;20649;-78
2023/09/03 04:06:17;;;;;;;66.43;29.77;;;13.90;99.90;;;;;;4863357;29;20431;-78
2023/09/03 04:08:43;;;;;;;51.57;27.30;;;13.90;99.90;;;;;;4862707;29;20425;-78
2023/09/03 04:11:10;;;;;;;49.27;26.67;;;13.80;99.90;;;;;;4862914;29;20484;-78
2023/09/03 04:13:37;;;;;;;48.90;27.63;;;13.80;99.90;;;;;;4862949;29;20429;-78
2023/09/03 04:16:08;;;;;;;52.13;27.67;;;13.70;99.90;;;;;;4862920;29;20469;-78
2023/09/03 04:18:34;;;;;;;54.70;27.97;;;13.70;99.90;;;;;;4862725;29;20473;-78
2023/09/03 04:21:00;;;;;;;57.60;29.20;;;13.80;99.90;;;;;;4863623;29;20473;-78
2023/09/03 04:23:26;;;;;;;59.50;32.10;;;13.80;99.90;;;;;;4862863;29;20511;-77
2023/09/03 04:25:52;;;;;;;53.63;28.97;;;13.80;99.90;;;;;;4862693;29;20425;-77
2023/09/03 04:28:19;;;;;;;51.27;29.30;;;13.80;99.90;;;;;;4862743;29;20243;-78
2023/09/03 04:30:44;;;;;;;41.80;25.10;;;13.80;99.90;;;;;;4862491;29;20428;-77
2023/09/03 04:33:10;;;;;;;45.63;25.47;;;13.80;99.90;;;;;;4862748;29;20417;-78
2023/09/03 04:35:37;;;;;;;49.63;28.80;;;13.80;99.90;;;;;;4862533;29;20199;-78
2023/09/03 04:38:03;;;;;;;54.17;27.73;;;13.80;99.90;;;;;;4862751;29;20185;-77
2023/09/03 04:40:36;;;;;;;63.83;29.77;;;13.80;99.90;;;;;;4862837;29;20420;-77
2023/09/03 04:43:05;;;;;;;69.60;31.90;;;13.80;99.90;;;;;;4862634;29;20431;-77
2023/09/03 04:45:31;;;;;;;66.53;32.70;;;13.90;99.90;;;;;;4862238;29;20432;-82
2023/09/03 04:48:00;;;;;;;67.00;31.73;;;13.90;99.90;;;;;;4865889;29;20396;-78
2023/09/03 04:50:26;;;;;;;64.80;32.87;;;14.00;99.90;;;;;;4866704;29;20433;-78
2023/09/03 04:52:55;;;;;;;62.97;32.03;;;14.00;99.90;;;;;;4865629;29;20491;-78
2023/09/03 04:55:20;;;;;;;58.17;28.67;;;14.00;99.90;;;;;;4866407;29;20549;-78
2023/09/03 04:57:46;;;;;;;56.97;30.70;;;13.90;99.90;;;;;;4866181;29;20428;-78
2023/09/03 05:00:12;;;;;;;83.97;34.70;;;13.90;99.90;;;;;;4866182;29;20184;-78
2023/09/03 05:02:37;;;;;;;213.93;45.47;;;13.90;99.90;;;;;;4865872;29;20680;-78
2023/09/03 05:05:03;;;;;;;106.30;35.10;;;13.90;99.90;;;;;;4866249;29;20432;-79
2023/09/03 05:07:29;;;;;;;363.40;50.77;;;14.00;99.90;;;;;;4866077;29;20737;-78
2023/09/03 05:09:55;;;;;;;86.77;34.43;;;14.00;99.90;;;;;;4866017;29;20537;-78
2023/09/03 05:12:21;;;;;;;103.37;40.83;;;14.00;99.90;;;;;;4865805;29;20225;-79
2023/09/03 05:14:47;;;;;;;130.03;40.00;;;14.00;99.90;;;;;;4865438;29;20840;-80
2023/09/03 05:17:13;;;;;;;275.60;47.83;;;14.00;99.90;;;;;;4866239;29;20778;-78
2023/09/03 05:19:39;;;;;;;106.50;37.47;;;14.10;99.90;;;;;;4865754;29;20421;-79
2023/09/03 05:22:05;;;;;;;100.40;38.03;;;14.10;99.90;;;;;;4865644;29;20399;-78
2023/09/03 05:24:31;;;;;;;219.17;45.80;;;14.10;99.90;;;;;;4865604;29;20406;-78
2023/09/03 05:26:57;;;;;;;117.57;39.70;;;14.10;99.90;;;;;;4865377;29;20425;-78
2023/09/03 05:29:22;;;;;;;144.13;41.07;;;14.20;99.90;;;;;;4864901;29;20319;-78
2023/09/03 05:31:48;;;;;;;177.07;44.00;;;14.20;99.90;;;;;;4865237;29;20669;-80
2023/09/03 05:34:13;;;;;;;152.50;42.80;;;14.20;99.90;;;;;;4865026;29;20195;-80
2023/09/03 05:36:39;;;;;;;191.03;44.87;;;14.30;99.90;;;;;;4865081;29;20188;-80
2023/09/03 05:39:04;;;;;;;133.60;42.67;;;14.30;99.90;;;;;;4865025;29;20584;-78
2023/09/03 05:41:31;;;;;;;257.67;47.67;;;14.30;99.90;;;;;;4865304;29;20641;-78
2023/09/03 05:43:57;;;;;;;263.23;47.57;;;14.30;99.90;;;;;;4864912;29;20180;-78
2023/09/03 05:46:23;;;;;;;115.20;38.27;;;14.30;99.90;;;;;;4865539;29;20481;-80
2023/09/03 05:48:50;;;;;;;189.93;38.33;;;14.30;99.90;;;;;;4865152;29;20473;-81
2023/09/03 05:51:16;;;;;;;123.50;37.97;;;14.30;99.90;;;;;;4865235;29;20468;-80
2023/09/03 05:53:42;;;;;;;74.23;34.03;;;14.30;99.90;;;;;;4864602;29;20420;-80
2023/09/03 05:56:10;;;;;;;107.13;36.53;;;14.30;99.90;;;;;;4865161;29;20548;-80
2023/09/03 05:58:36;;;;;;;91.50;33.90;;;14.40;99.90;;;;;;4864012;29;20532;-85
2023/09/03 06:01:10;;;;;;;75.10;34.20;;;14.50;99.90;;;;;;4865140;29;20974;-80
2023/09/03 06:03:37;;;;;;;75.17;35.43;;;14.60;99.90;;;;;;4865031;29;20654;-84
2023/09/03 06:06:07;;;;;;;226.10;43.50;;;14.50;99.90;;;;;;4865338;29;20515;-79
2023/09/03 06:08:34;;;;;;;260.00;45.07;;;14.70;99.90;;;;;;4865153;29;20413;-80
2023/09/03 06:11:00;;;;;;;326.20;49.50;;;14.80;99.90;;;;;;4864130;29;20443;-80
2023/09/03 06:13:27;;;;;;;125.77;36.53;;;15.00;99.90;;;;;;4864794;29;20417;-80
2023/09/03 06:15:53;;;;;;;148.10;35.27;;;14.80;99.90;;;;;;4864308;29;20449;-80
2023/09/03 06:18:18;;;;;;;130.50;36.93;;;14.70;99.90;;;;;;4864486;29;20927;-80
2023/09/03 06:20:44;;;;;;;113.70;36.30;;;14.70;99.90;;;;;;4864691;29;20433;-80
2023/09/03 06:23:11;;;;;;;136.63;37.00;;;14.70;99.90;;;;;;4864803;29;20184;-78
2023/09/03 06:25:38;;;;;;;95.77;32.20;;;14.90;99.90;;;;;;4864282;29;20545;-87
2023/09/03 06:28:03;;;;;;;166.13;37.50;;;15.00;99.90;;;;;;4864217;29;21016;-80
2023/09/03 06:30:29;;;;;;;72.30;32.60;;;15.20;99.90;;;;;;4864410;29;20422;-80
2023/09/03 06:32:55;;;;;;;85.57;38.17;;;15.10;99.90;;;;;;4863987;29;20962;-80
2023/09/03 06:35:20;;;;;;;113.73;41.80;;;15.30;99.90;;;;;;4864707;29;20188;-80
2023/09/03 06:37:46;;;;;;;79.37;39.30;;;15.30;99.90;;;;;;4864149;29;20263;-81
2023/09/03 06:40:14;;;;;;;112.23;44.10;;;15.40;99.90;;;;;;4864232;29;20248;-80
2023/09/03 06:42:41;;;;;;;87.67;41.10;;;15.50;99.90;;;;;;4863674;29;20519;-87
2023/09/03 06:45:07;;;;;;;89.13;41.83;;;15.60;99.90;;;;;;4863619;29;20840;-87
2023/09/03 06:47:33;;;;;;;100.00;43.13;;;15.60;99.90;;;;;;4863402;29;20424;-86
2023/09/03 06:49:58;;;;;;;141.13;42.97;;;15.70;99.90;;;;;;4862951;29;20421;-86
2023/09/03 06:52:24;;;;;;;91.53;43.00;;;15.70;99.90;;;;;;4862977;29;20220;-86
2023/09/03 06:54:50;;;;;;;113.63;43.60;;;15.70;99.90;;;;;;4862894;29;20184;-86
2023/09/03 06:57:16;;;;;;;89.77;43.97;;;15.80;99.90;;;;;;4862944;29;20204;-87
2023/09/03 06:59:42;;;;;;;93.73;43.33;;;15.90;99.90;;;;;;4862926;29;20661;-87
2023/09/03 07:02:08;;;;;;;89.57;43.83;;;16.20;99.90;;;;;;4861889;29;20503;-86
2023/09/03 07:04:35;;;;;;;94.33;44.10;;;16.10;99.90;;;;;;4862701;29;20432;-86
2023/09/03 07:07:02;;;;;;;85.17;43.27;;;16.20;99.90;;;;;;4862479;29;20505;-87
2023/09/03 07:09:29;;;;;;;114.97;44.60;;;16.10;99.90;;;;;;4862265;29;20413;-87
2023/09/03 07:11:54;;;;;;;91.20;45.70;;;16.20;99.90;;;;;;4861820;29;20936;-87
2023/09/03 07:14:20;;;;;;;95.03;46.00;;;16.20;99.90;;;;;;4862781;29;20425;-87
2023/09/03 07:16:46;;;;;;;83.07;45.57;;;16.40;99.90;;;;;;4862481;29;20248;-87
2023/09/03 07:19:11;;;;;;;77.93;43.47;;;16.50;99.90;;;;;;4863049;29;20392;-87
2023/09/03 07:21:37;;;;;;;80.90;46.10;;;16.40;99.90;;;;;;4861127;29;20196;-86
2023/09/03 07:24:03;;;;;;;77.97;44.10;;;16.60;99.90;;;;;;4861050;29;20712;-86
2023/09/03 07:26:28;;;;;;;67.43;42.00;;;16.70;99.90;;;;;;4862676;29;20551;-86
2023/09/03 07:28:54;;;;;;;71.40;44.03;;;16.80;99.90;;;;;;4862036;29;20232;-86
2023/09/03 07:31:20;;;;;;;70.70;41.37;;;16.90;99.90;;;;;;4863085;29;20561;-86
2023/09/03 07:33:45;;;;;;;76.90;44.80;;;17.00;99.90;;;;;;4862478;29;20188;-85
2023/09/03 07:36:11;;;;;;;69.60;42.40;;;17.20;99.90;;;;;;4862611;29;20192;-84
2023/09/03 07:38:38;;;;;;;67.20;44.20;;;17.20;99.90;;;;;;4862344;29;20187;-84
2023/09/03 07:41:03;;;;;;;63.83;43.77;;;17.40;99.90;;;;;;4861022;29;20492;-84
2023/09/03 07:43:29;;;;;;;71.97;44.63;;;17.50;99.90;;;;;;4861186;29;20405;-84
2023/09/03 07:45:55;;;;;;;66.77;47.10;;;17.70;99.90;;;;;;4862262;29;20184;-84
2023/09/03 07:48:20;;;;;;;69.53;45.60;;;18.00;99.90;;;;;;4862661;29;20622;-84
2023/09/03 07:50:46;;;;;;;65.77;45.33;;;18.20;99.90;;;;;;4861053;29;20396;-84
2023/09/03 07:53:12;;;;;;;62.20;44.13;;;18.30;99.90;;;;;;4862060;29;20184;-84
2023/09/03 07:55:37;;;;;;;54.63;39.37;;;18.40;99.90;;;;;;4861935;29;20625;-84
2023/09/03 07:58:03;;;;;;;52.47;38.00;;;18.50;99.90;;;;;;4860904;29;20244;-84
2023/09/03 08:00:29;;;;;;;54.87;38.93;;;18.60;99.90;;;;;;4861142;29;20255;-84
2023/09/03 08:02:54;;;;;;;54.50;39.27;;;18.70;99.90;;;;;;4861923;29;20404;-84
2023/09/03 08:05:20;;;;;;;62.83;39.67;;;18.80;99.90;;;;;;4862105;29;20645;-84
2023/09/03 08:07:46;;;;;;;52.60;37.97;;;18.70;99.90;;;;;;4861812;29;20196;-84
2023/09/03 08:10:12;;;;;;;46.20;36.60;;;18.80;99.90;;;;;;4862076;29;20195;-84
2023/09/03 08:12:37;;;;;;;49.27;38.30;;;19.00;99.90;;;;;;4861983;29;20215;-84
2023/09/03 08:15:03;;;;;;;44.27;34.83;;;19.10;99.90;;;;;;4861822;29;20188;-84
2023/09/03 08:17:32;;;;;;;44.80;32.80;;;19.20;99.90;;;;;;4861983;29;20199;-84
2023/09/03 08:19:57;;;;;;;43.67;33.13;;;19.20;99.90;;;;;;4861503;29;20187;-84
2023/09/03 08:22:23;;;;;;;38.13;29.73;;;19.30;99.90;;;;;;4861626;29;20421;-84
2023/09/03 08:24:48;;;;;;;38.70;31.33;;;19.50;99.90;;;;;;4862280;29;20568;-83
2023/09/03 08:27:14;;;;;;;40.07;34.33;;;19.60;99.90;;;;;;4860423;29;20191;-84
2023/09/03 08:29:40;;;;;;;36.30;31.50;;;19.70;99.90;;;;;;4862170;29;20176;-83
2023/09/03 08:32:06;;;;;;;39.77;29.97;;;19.50;99.90;;;;;;4860100;29;20212;-83
2023/09/03 08:34:31;;;;;;;38.50;31.00;;;19.80;99.90;;;;;;4860215;29;20244;-83
2023/09/03 08:36:57;;;;;;;33.70;29.17;;;20.00;99.90;;;;;;4860375;29;20836;-83
2023/09/03 08:39:23;;;;;;;34.60;27.90;;;20.00;99.90;;;;;;4860701;29;20294;-83
2023/09/03 08:41:49;;;;;;;33.87;27.57;;;19.90;99.90;;;;;;4863711;29;20188;-83
2023/09/03 08:44:42;;;;;;;31.73;25.33;;;20.10;99.90;;;;;;4861766;29;20564;-85
2023/09/03 08:47:11;;;;;;;27.93;24.73;;;20.30;99.90;;;;;;4852622;29;20441;-85
2023/09/03 08:49:38;;;;;;;27.07;24.17;;;20.60;99.90;;;;;;4861546;29;20918;-85
2023/09/03 08:52:06;;;;;;;26.10;22.13;;;20.60;99.90;;;;;;4861554;29;20443;-85
2023/09/03 08:54:32;;;;;;;23.73;20.90;;;20.90;99.90;;;;;;4861560;29;20424;-85
2023/09/03 08:56:59;;;;;;;24.47;21.30;;;21.10;99.90;;;;;;4861064;29;20417;-85
2023/09/03 08:59:24;;;;;;;26.13;22.37;;;21.10;99.90;;;;;;4862233;29;20200;-85
2023/09/03 09:01:53;;;;;;;22.53;19.57;;;21.30;99.90;;;;;;4862527;29;20922;-85
2023/09/03 09:04:19;;;;;;;24.97;22.40;;;21.80;99.90;;;;;;4861588;29;20180;-84
2023/09/03 09:06:46;;;;;;;23.93;20.67;;;21.70;99.90;;;;;;4861241;29;20432;-85
2023/09/03 09:09:13;;;;;;;24.27;21.07;;;21.70;99.90;;;;;;4861889;29;20436;-85
2023/09/03 09:11:41;;;;;;;28.80;22.97;;;22.10;99.90;;;;;;4861511;29;20957;-85
2023/09/03 09:14:27;;;;;;;27.03;21.30;;;22.00;99.90;;;;;;4860737;29;20425;-85
2023/09/03 09:16:53;;;;;;;26.10;23.27;;;21.70;99.90;;;;;;4861075;29;20450;-85
2023/09/03 09:19:19;;;;;;;27.20;23.03;;;21.70;99.90;;;;;;4861101;29;20417;-85
2023/09/03 09:21:44;;;;;;;27.50;22.90;;;21.90;99.90;;;;;;4861175;29;20219;-85
2023/09/03 09:24:11;;;;;;;29.47;24.37;;;22.30;99.90;;;;;;4860849;29;20520;-85
2023/09/03 09:26:38;;;;;;;24.40;21.67;;;22.50;99.90;;;;;;4860902;29;20248;-83
2023/09/03 09:29:04;;;;;;;27.37;22.67;;;22.80;99.90;;;;;;4860952;29;20571;-83
2023/09/03 09:31:33;;;;;;;26.17;23.13;;;23.10;99.90;;;;;;4860722;29;20545;-82
2023/09/03 09:34:13;;;;;;;26.57;23.77;;;22.90;99.90;;;;;;4861999;29;20413;-85
2023/09/03 09:36:53;;;;;;;27.63;24.30;;;23.00;99.90;;;;;;4864311;29;20485;-85
2023/09/03 09:39:18;;;;;;;28.70;24.77;;;23.40;99.90;;;;;;4864088;29;20413;-85
2023/09/03 09:41:44;;;;;;;28.43;23.93;;;23.70;99.90;;;;;;4864205;29;20413;-83
2023/09/03 09:44:10;;;;;;;26.17;23.47;;;23.40;99.90;;;;;;4863836;29;20314;-82
2023/09/03 09:46:36;;;;;;;25.30;22.20;;;23.50;99.90;;;;;;4864238;29;20287;-83
2023/09/03 09:49:02;;;;;;;25.87;23.17;;;23.50;99.90;;;;;;4863656;29;20456;-83
2023/09/03 09:51:29;;;;;;;27.93;25.00;;;23.80;99.90;;;;;;4864190;29;20336;-82
2023/09/03 09:53:56;;;;;;;30.27;24.77;;;23.70;99.90;;;;;;4863747;29;20832;-83
2023/09/03 09:56:27;;;;;;;28.47;23.27;;;23.60;99.90;;;;;;4864208;29;20417;-83
2023/09/03 09:58:53;;;;;;;24.40;21.83;;;23.30;99.90;;;;;;4863534;29;20523;-84
2023/09/03 10:01:18;;;;;;;23.93;20.90;;;23.90;99.90;;;;;;4863875;29;20512;-83
2023/09/03 10:03:46;;;;;;;20.37;18.37;;;24.60;99.90;;;;;;4863845;29;20184;-83
2023/09/03 10:06:16;;;;;;;17.67;15.30;;;25.40;99.90;;;;;;4863177;29;20192;-83
2023/09/03 10:08:42;;;;;;;22.40;19.67;;;26.40;99.90;;;;;;4863235;29;20909;-84
2023/09/03 10:11:08;;;;;;;21.80;18.80;;;26.70;99.90;;;;;;4863027;29;20623;-84
2023/09/03 10:13:33;;;;;;;18.17;16.43;;;26.00;99.90;;;;;;4863348;29;20891;-83
2023/09/03 10:16:09;;;;;;;14.27;12.90;;;26.00;99.90;;;;;;4862932;29;20191;-84
2023/09/03 10:18:45;;;;;;;12.70;11.40;;;26.70;99.90;;;;;;4863166;29;20172;-84
2023/09/03 10:21:13;;;;;;;13.47;10.70;;;26.70;99.90;;;;;;4862732;29;20508;-83
2023/09/03 10:23:50;;;;;;;12.43;10.37;;;26.50;99.90;;;;;;4862832;29;20413;-84
2023/09/03 10:26:30;;;;;;;12.43;11.13;;;27.20;99.90;;;;;;4863109;29;20409;-84
2023/09/03 10:29:03;;;;;;;12.97;11.30;;;27.40;99.90;;;;;;4862551;29;20826;-84
2023/09/03 10:31:30;;;;;;;11.33;10.23;;;26.50;99.90;;;;;;4861736;29;20480;-84
2023/09/03 10:33:56;;;;;;;11.90;10.70;;;26.40;99.90;;;;;;4862630;29;20797;-84
2023/09/03 10:36:21;;;;;;;12.00;10.80;;;26.90;99.90;;;;;;4862935;29;20417;-84
2023/09/03 10:38:47;;;;;;;11.23;10.23;;;27.50;99.90;;;;;;4862688;29;20623;-84
2023/09/03 10:41:20;;;;;;;10.40;9.40;;;27.10;99.90;;;;;;4862287;29;20224;-84
2023/09/03 10:43:48;;;;;;;10.10;9.10;;;27.20;99.90;;;;;;4862767;29;20187;-84
2023/09/03 10:46:13;;;;;;;8.17;6.90;;;27.50;99.90;;;;;;4861953;29;20951;-84
2023/09/03 10:48:39;;;;;;;7.83;6.20;;;27.30;99.90;;;;;;4862532;29;20433;-84
2023/09/03 10:51:05;;;;;;;6.03;5.23;;;27.60;99.90;;;;;;4862350;29;20692;-84
2023/09/03 10:53:41;;;;;;;4.27;3.87;;;27.50;99.90;;;;;;4862599;29;20205;-83
2023/09/03 10:56:19;;;;;;;4.47;3.70;;;27.50;99.90;;;;;;4862074;29;20440;-84
2023/09/03 10:58:59;;;;;;;7.30;6.60;;;27.50;99.90;;;;;;4862136;29;20535;-84
2023/09/03 11:01:31;;;;;;;5.67;5.17;;;27.60;99.90;;;;;;4862626;29;20433;-83
2023/09/03 11:04:00;;;;;;;6.53;5.90;;;27.30;99.90;;;;;;4862068;29;20800;-84
2023/09/03 11:06:27;;;;;;;4.83;4.40;;;26.90;99.90;;;;;;4862198;29;20417;-84
2023/09/03 11:08:59;;;;;;;5.30;4.83;;;27.40;99.90;;;;;;4861884;29;20429;-83
2023/09/03 11:11:28;;;;;;;6.30;5.80;;;27.80;99.90;;;;;;4862171;29;20472;-84
2023/09/03 11:13:55;;;;;;;6.40;5.17;;;27.80;99.90;;;;;;4862047;29;20496;-85
2023/09/03 11:16:34;;;;;;;6.23;5.50;;;28.10;99.90;;;;;;4862071;29;20418;-84
2023/09/03 11:19:04;;;;;;;4.63;4.23;;;28.00;99.90;;;;;;4861644;29;20436;-84
2023/09/03 11:21:30;;;;;;;5.13;4.70;;;28.50;99.90;;;;;;4861822;29;20435;-83
2023/09/03 11:24:17;;;;;;;4.53;4.13;;;28.60;99.90;;;;;;4861512;29;20508;-84
2023/09/03 11:26:44;;;;;;;4.40;4.10;;;28.90;99.90;;;;;;4861873;29;20410;-83
2023/09/03 11:29:20;;;;;;;4.37;3.80;;;29.10;99.90;;;;;;4861273;29;20473;-84
2023/09/03 11:31:49;;;;;;;4.67;3.67;;;28.70;99.90;;;;;;4861553;29;20830;-84
2023/09/03 11:34:19;;;;;;;3.70;3.40;;;29.00;99.90;;;;;;4860273;29;20428;-84
2023/09/03 11:36:46;;;;;;;4.17;3.77;;;28.80;99.90;;;;;;4861700;29;20433;-84
2023/09/03 11:39:16;;;;;;;3.67;3.37;;;29.40;99.90;;;;;;4861478;29;20894;-84
2023/09/03 11:41:43;;;;;;;4.67;4.27;;;29.80;99.90;;;;;;4861574;29;20789;-84
2023/09/03 11:44:14;;;;;;;5.10;4.40;;;30.40;99.90;;;;;;4861190;29;20449;-84
2023/09/03 11:46:40;;;;;;;4.20;3.90;;;30.30;99.90;;;;;;4861321;29;20429;-84
2023/09/03 11:49:05;;;;;;;6.47;5.87;;;30.00;99.90;;;;;;4861328;29;20416;-84
2023/09/03 11:51:31;;;;;;;4.80;4.40;;;30.10;99.90;;;;;;4861611;29;20244;-84
2023/09/03 11:53:57;;;;;;;3.10;2.90;;;29.90;99.90;;;;;;4861322;29;20192;-85
2023/09/03 11:56:24;;;;;;;5.03;3.97;;;29.70;99.90;;;;;;4861060;29;20557;-84
2023/09/03 11:58:58;;;;;;;3.90;3.60;;;29.80;99.90;;;;;;4861209;29;20188;-83
2023/09/03 12:01:24;;;;;;;3.67;3.37;;;29.50;99.90;;;;;;4861434;29;20421;-84
2023/09/03 12:03:51;;;;;;;3.10;2.80;;;29.00;99.90;;;;;;4861422;29;20424;-83
2023/09/03 12:06:18;;;;;;;4.43;2.47;;;28.90;99.90;;;;;;4861017;29;20491;-83
2023/09/03 12:08:44;;;;;;;3.70;3.40;;;28.70;99.90;;;;;;4861120;29;20428;-83
2023/09/03 12:11:10;;;;;;;3.60;3.30;;;29.10;99.90;;;;;;4860959;29;20473;-84
2023/09/03 12:13:39;;;;;;;3.93;3.50;;;29.80;99.90;;;;;;4860935;29;20425;-84
2023/09/03 12:16:15;;;;;;;2.90;2.70;;;29.90;99.90;;;;;;4861032;29;20906;-84
2023/09/03 12:19:01;;;;;;;3.80;3.50;;;30.00;99.90;;;;;;4860964;29;20428;-83
2023/09/03 12:21:35;;;;;;;3.17;2.90;;;30.00;99.90;;;;;;4861095;29;20508;-84
2023/09/03 12:24:06;;;;;;;4.50;4.03;;;30.20;99.90;;;;;;4860705;29;20421;-84
2023/09/03 12:26:35;;;;;;;3.77;3.43;;;30.60;99.90;;;;;;4861080;29;20421;-84
2023/09/03 12:29:01;;;;;;;3.67;3.37;;;30.40;99.90;;;;;;4859209;29;20832;-84
2023/09/03 12:31:44;;;;;;;3.70;3.40;;;31.00;99.90;;;;;;4860885;29;20826;-84